sensor_id;sensor_type;location;lat;lon;timestamp;P1;durP1;ratioP1;P2;durP2;ratioP2
42832;SDS011;28479;51.478;5.692;2022-08-01T00:00:09;11.50;;;5.00;;
42832;SDS011;28479;51.478;5.692;2022-08-01T00:02:38;7.70;;;5.10;;
42832;SDS011;28479;51.478;5.692;2022-08-01T00:05:05;10.10;;;5.45;;
42832;SDS011;28479;51.478;5.692;2022-08-01T00:07:32;7.85;;;4.97;;
42832;SDS011;28479;51.478;5.692;2022-08-01T00:09:58;7.20;;;4.97;;
42832;SDS011;28479;51.478;5.692;2022-08-01T00:12:24;8.85;;;5.35;;
42832;SDS011;28479;51.478;5.692;2022-08-01T00:14:50;12.93;;;5.45;;
42832;SDS011;28479;51.478;5.692;2022-08-01T00:17:15;9.63;;;5.40;;
42832;SDS011;28479;51.478;5.692;2022-08-01T00:19:41;11.82;;;6.03;;
42832;SDS011;28479;51.478;5.692;2022-08-01T00:22:06;10.00;;;5.57;;
42832;SDS011;28479;51.478;5.692;2022-08-01T00:24:32;10.05;;;4.78;;
42832;SDS011;28479;51.478;5.692;2022-08-01T00:26:58;16.17;;;6.53;;
42832;SDS011;28479;51.478;5.692;2022-08-01T00:29:23;16.17;;;5.47;;
42832;SDS011;28479;51.478;5.692;2022-08-01T00:31:49;12.30;;;6.25;;
42832;SDS011;28479;51.478;5.692;2022-08-01T00:34:14;12.05;;;5.85;;
42832;SDS011;28479;51.478;5.692;2022-08-01T00:36:40;16.52;;;6.63;;
42832;SDS011;28479;51.478;5.692;2022-08-01T00:39:06;11.68;;;6.25;;
42832;SDS011;28479;51.478;5.692;2022-08-01T00:41:31;14.20;;;7.05;;
42832;SDS011;28479;51.478;5.692;2022-08-01T00:43:57;19.00;;;6.32;;
42832;SDS011;28479;51.478;5.692;2022-08-01T00:46:22;10.95;;;6.60;;
42832;SDS011;28479;51.478;5.692;2022-08-01T00:48:48;16.42;;;6.95;;
42832;SDS011;28479;51.478;5.692;2022-08-01T00:51:14;17.67;;;6.95;;
42832;SDS011;28479;51.478;5.692;2022-08-01T00:53:40;14.35;;;7.57;;
42832;SDS011;28479;51.478;5.692;2022-08-01T00:56:05;14.40;;;6.10;;
42832;SDS011;28479;51.478;5.692;2022-08-01T00:58:32;18.33;;;7.07;;
42832;SDS011;28479;51.478;5.692;2022-08-01T01:00:59;16.73;;;7.45;;
42832;SDS011;28479;51.478;5.692;2022-08-01T01:03:25;14.38;;;7.50;;
42832;SDS011;28479;51.478;5.692;2022-08-01T01:05:55;13.23;;;6.80;;
42832;SDS011;28479;51.478;5.692;2022-08-01T01:09:17;23.77;;;7.38;;
42832;SDS011;28479;51.478;5.692;2022-08-01T01:14:21;16.67;;;6.35;;
42832;SDS011;28479;51.478;5.692;2022-08-01T01:16:55;16.90;;;8.00;;
42832;SDS011;28479;51.478;5.692;2022-08-01T01:19:23;19.98;;;8.35;;
42832;SDS011;28479;51.478;5.692;2022-08-01T01:22:00;17.63;;;7.57;;
42832;SDS011;28479;51.478;5.692;2022-08-01T01:30:25;18.58;;;7.25;;
42832;SDS011;28479;51.478;5.692;2022-08-01T01:32:55;18.98;;;9.18;;
42832;SDS011;28479;51.478;5.692;2022-08-01T01:35:27;18.60;;;8.05;;
42832;SDS011;28479;51.478;5.692;2022-08-01T01:37:58;21.45;;;10.15;;
42832;SDS011;28479;51.478;5.692;2022-08-01T01:40:29;22.52;;;9.45;;
42832;SDS011;28479;51.478;5.692;2022-08-01T01:42:56;30.35;;;11.70;;
42832;SDS011;28479;51.478;5.692;2022-08-01T01:45:25;24.88;;;9.75;;
42832;SDS011;28479;51.478;5.692;2022-08-01T01:47:52;18.55;;;9.73;;
42832;SDS011;28479;51.478;5.692;2022-08-01T01:50:23;20.92;;;9.18;;
42832;SDS011;28479;51.478;5.692;2022-08-01T01:52:50;19.48;;;8.55;;
42832;SDS011;28479;51.478;5.692;2022-08-01T01:55:17;16.17;;;8.02;;
42832;SDS011;28479;51.478;5.692;2022-08-01T01:57:46;18.52;;;7.07;;
42832;SDS011;28479;51.478;5.692;2022-08-01T02:00:13;15.02;;;7.25;;
42832;SDS011;28479;51.478;5.692;2022-08-01T02:02:40;16.05;;;7.18;;
42832;SDS011;28479;51.478;5.692;2022-08-01T02:05:09;13.43;;;7.47;;
42832;SDS011;28479;51.478;5.692;2022-08-01T02:07:36;27.10;;;7.50;;
42832;SDS011;28479;51.478;5.692;2022-08-01T02:10:04;11.63;;;6.60;;
42832;SDS011;28479;51.478;5.692;2022-08-01T02:12:34;15.63;;;8.02;;
42832;SDS011;28479;51.478;5.692;2022-08-01T02:15:03;20.75;;;8.88;;
42832;SDS011;28479;51.478;5.692;2022-08-01T02:17:30;25.88;;;8.25;;
42832;SDS011;28479;51.478;5.692;2022-08-01T02:19:57;19.15;;;7.30;;
42832;SDS011;28479;51.478;5.692;2022-08-01T02:25:03;12.98;;;6.45;;
42832;SDS011;28479;51.478;5.692;2022-08-01T02:27:40;22.73;;;7.88;;
42832;SDS011;28479;51.478;5.692;2022-08-01T02:30:11;23.00;;;7.38;;
42832;SDS011;28479;51.478;5.692;2022-08-01T02:32:43;16.55;;;8.02;;
42832;SDS011;28479;51.478;5.692;2022-08-01T02:35:13;15.48;;;6.50;;
42832;SDS011;28479;51.478;5.692;2022-08-01T02:37:45;14.63;;;7.68;;
42832;SDS011;28479;51.478;5.692;2022-08-01T02:40:13;11.45;;;6.70;;
42832;SDS011;28479;51.478;5.692;2022-08-01T02:42:43;14.52;;;7.65;;
42832;SDS011;28479;51.478;5.692;2022-08-01T02:45:14;13.73;;;6.50;;
42832;SDS011;28479;51.478;5.692;2022-08-01T02:47:49;13.98;;;7.05;;
42832;SDS011;28479;51.478;5.692;2022-08-01T02:50:16;12.75;;;6.40;;
42832;SDS011;28479;51.478;5.692;2022-08-01T02:52:43;10.43;;;5.85;;
42832;SDS011;28479;51.478;5.692;2022-08-01T02:55:12;13.75;;;6.00;;
42832;SDS011;28479;51.478;5.692;2022-08-01T02:57:38;14.40;;;6.25;;
42832;SDS011;28479;51.478;5.692;2022-08-01T03:00:07;16.40;;;5.78;;
42832;SDS011;28479;51.478;5.692;2022-08-01T03:02:33;12.48;;;5.72;;
42832;SDS011;28479;51.478;5.692;2022-08-01T03:05:00;13.05;;;6.15;;
42832;SDS011;28479;51.478;5.692;2022-08-01T03:07:27;11.27;;;5.95;;
42832;SDS011;28479;51.478;5.692;2022-08-01T03:09:54;12.50;;;6.00;;
42832;SDS011;28479;51.478;5.692;2022-08-01T03:12:25;10.13;;;5.28;;
42832;SDS011;28479;51.478;5.692;2022-08-01T03:14:54;12.52;;;6.10;;
42832;SDS011;28479;51.478;5.692;2022-08-01T03:17:23;12.05;;;5.38;;
42832;SDS011;28479;51.478;5.692;2022-08-01T03:19:52;13.57;;;4.78;;
42832;SDS011;28479;51.478;5.692;2022-08-01T03:22:20;14.40;;;6.18;;
42832;SDS011;28479;51.478;5.692;2022-08-01T03:24:48;12.50;;;5.75;;
42832;SDS011;28479;51.478;5.692;2022-08-01T03:27:16;16.15;;;5.70;;
42832;SDS011;28479;51.478;5.692;2022-08-01T03:29:44;14.80;;;6.28;;
42832;SDS011;28479;51.478;5.692;2022-08-01T03:32:11;10.25;;;5.05;;
42832;SDS011;28479;51.478;5.692;2022-08-01T03:34:38;11.18;;;5.07;;
42832;SDS011;28479;51.478;5.692;2022-08-01T03:37:06;14.52;;;5.57;;
42832;SDS011;28479;51.478;5.692;2022-08-01T03:39:47;11.93;;;5.35;;
42832;SDS011;28479;51.478;5.692;2022-08-01T03:42:18;10.68;;;4.82;;
42832;SDS011;28479;51.478;5.692;2022-08-01T03:44:57;10.32;;;4.78;;
42832;SDS011;28479;51.478;5.692;2022-08-01T03:47:29;11.32;;;5.00;;
42832;SDS011;28479;51.478;5.692;2022-08-01T03:49:57;12.48;;;4.85;;
42832;SDS011;28479;51.478;5.692;2022-08-01T03:52:24;10.73;;;5.00;;
42832;SDS011;28479;51.478;5.692;2022-08-01T03:54:53;12.07;;;4.93;;
42832;SDS011;28479;51.478;5.692;2022-08-01T03:57:21;10.18;;;4.95;;
42832;SDS011;28479;51.478;5.692;2022-08-01T03:59:49;11.20;;;5.07;;
42832;SDS011;28479;51.478;5.692;2022-08-01T04:02:15;12.52;;;4.65;;
42832;SDS011;28479;51.478;5.692;2022-08-01T04:04:41;9.82;;;4.32;;
42832;SDS011;28479;51.478;5.692;2022-08-01T04:07:26;12.80;;;4.85;;
42832;SDS011;28479;51.478;5.692;2022-08-01T04:09:57;9.73;;;4.68;;
42832;SDS011;28479;51.478;5.692;2022-08-01T04:12:23;16.25;;;5.03;;
42832;SDS011;28479;51.478;5.692;2022-08-01T04:14:49;12.02;;;6.00;;
42832;SDS011;28479;51.478;5.692;2022-08-01T04:17:15;10.95;;;5.15;;
42832;SDS011;28479;51.478;5.692;2022-08-01T04:19:41;7.25;;;4.82;;
42832;SDS011;28479;51.478;5.692;2022-08-01T04:22:08;8.18;;;4.90;;
42832;SDS011;28479;51.478;5.692;2022-08-01T04:24:36;12.95;;;5.90;;
42832;SDS011;28479;51.478;5.692;2022-08-01T04:27:04;8.68;;;4.47;;
42832;SDS011;28479;51.478;5.692;2022-08-01T04:29:33;14.70;;;6.05;;
42832;SDS011;28479;51.478;5.692;2022-08-01T04:32:00;15.82;;;5.78;;
42832;SDS011;28479;51.478;5.692;2022-08-01T04:34:27;12.35;;;5.97;;
42832;SDS011;28479;51.478;5.692;2022-08-01T04:36:55;14.43;;;5.82;;
42832;SDS011;28479;51.478;5.692;2022-08-01T04:39:26;12.27;;;5.38;;
42832;SDS011;28479;51.478;5.692;2022-08-01T04:41:55;11.98;;;5.10;;
42832;SDS011;28479;51.478;5.692;2022-08-01T04:44:23;9.73;;;5.13;;
42832;SDS011;28479;51.478;5.692;2022-08-01T04:46:50;11.45;;;5.28;;
42832;SDS011;28479;51.478;5.692;2022-08-01T04:49:19;11.23;;;5.78;;
42832;SDS011;28479;51.478;5.692;2022-08-01T04:51:52;12.07;;;5.03;;
42832;SDS011;28479;51.478;5.692;2022-08-01T04:54:28;9.70;;;4.85;;
42832;SDS011;28479;51.478;5.692;2022-08-01T04:56:58;10.60;;;5.63;;
42832;SDS011;28479;51.478;5.692;2022-08-01T04:59:28;13.23;;;5.80;;
42832;SDS011;28479;51.478;5.692;2022-08-01T05:02:07;10.00;;;4.80;;
42832;SDS011;28479;51.478;5.692;2022-08-01T05:04:40;9.43;;;4.95;;
42832;SDS011;28479;51.478;5.692;2022-08-01T05:07:07;14.15;;;4.57;;
42832;SDS011;28479;51.478;5.692;2022-08-01T05:09:34;8.98;;;4.38;;
42832;SDS011;28479;51.478;5.692;2022-08-01T05:12:01;8.73;;;4.40;;
42832;SDS011;28479;51.478;5.692;2022-08-01T05:14:28;8.93;;;4.03;;
42832;SDS011;28479;51.478;5.692;2022-08-01T05:16:57;10.23;;;3.63;;
42832;SDS011;28479;51.478;5.692;2022-08-01T05:19:23;7.75;;;3.75;;
42832;SDS011;28479;51.478;5.692;2022-08-01T05:21:49;9.52;;;3.75;;
42832;SDS011;28479;51.478;5.692;2022-08-01T05:24:14;8.40;;;4.35;;
42832;SDS011;28479;51.478;5.692;2022-08-01T05:26:40;9.02;;;4.65;;
42832;SDS011;28479;51.478;5.692;2022-08-01T05:29:12;8.23;;;4.07;;
42832;SDS011;28479;51.478;5.692;2022-08-01T05:31:37;8.52;;;3.60;;
42832;SDS011;28479;51.478;5.692;2022-08-01T05:34:03;7.28;;;3.70;;
42832;SDS011;28479;51.478;5.692;2022-08-01T05:36:29;8.88;;;3.63;;
42832;SDS011;28479;51.478;5.692;2022-08-01T05:38:54;8.07;;;3.72;;
42832;SDS011;28479;51.478;5.692;2022-08-01T05:41:20;9.13;;;3.90;;
42832;SDS011;28479;51.478;5.692;2022-08-01T05:43:46;7.20;;;3.50;;
42832;SDS011;28479;51.478;5.692;2022-08-01T05:46:12;7.22;;;4.10;;
42832;SDS011;28479;51.478;5.692;2022-08-01T05:48:37;9.85;;;4.05;;
42832;SDS011;28479;51.478;5.692;2022-08-01T05:51:07;8.82;;;4.20;;
42832;SDS011;28479;51.478;5.692;2022-08-01T05:53:32;8.75;;;4.03;;
42832;SDS011;28479;51.478;5.692;2022-08-01T05:56:01;6.93;;;3.80;;
42832;SDS011;28479;51.478;5.692;2022-08-01T05:58:26;7.07;;;3.65;;
42832;SDS011;28479;51.478;5.692;2022-08-01T06:00:52;8.70;;;4.32;;
42832;SDS011;28479;51.478;5.692;2022-08-01T06:03:18;6.55;;;3.63;;
42832;SDS011;28479;51.478;5.692;2022-08-01T06:05:44;9.00;;;4.00;;
42832;SDS011;28479;51.478;5.692;2022-08-01T06:08:09;7.90;;;4.07;;
42832;SDS011;28479;51.478;5.692;2022-08-01T06:10:41;8.73;;;3.90;;
42832;SDS011;28479;51.478;5.692;2022-08-01T06:13:06;5.50;;;3.42;;
42832;SDS011;28479;51.478;5.692;2022-08-01T06:15:32;8.93;;;4.47;;
42832;SDS011;28479;51.478;5.692;2022-08-01T06:17:58;7.75;;;3.78;;
42832;SDS011;28479;51.478;5.692;2022-08-01T06:20:23;12.68;;;4.55;;
42832;SDS011;28479;51.478;5.692;2022-08-01T06:22:49;7.35;;;4.10;;
42832;SDS011;28479;51.478;5.692;2022-08-01T06:25:16;7.82;;;3.95;;
42832;SDS011;28479;51.478;5.692;2022-08-01T06:27:42;8.02;;;3.65;;
42832;SDS011;28479;51.478;5.692;2022-08-01T06:30:08;4.88;;;3.17;;
42832;SDS011;28479;51.478;5.692;2022-08-01T06:32:34;11.52;;;4.05;;
42832;SDS011;28479;51.478;5.692;2022-08-01T06:35:00;5.32;;;2.80;;
42832;SDS011;28479;51.478;5.692;2022-08-01T06:37:29;3.58;;;2.33;;
42832;SDS011;28479;51.478;5.692;2022-08-01T06:39:57;4.57;;;2.90;;
42832;SDS011;28479;51.478;5.692;2022-08-01T06:42:28;7.38;;;2.95;;
42832;SDS011;28479;51.478;5.692;2022-08-01T06:44:56;5.13;;;2.85;;
42832;SDS011;28479;51.478;5.692;2022-08-01T06:47:22;4.65;;;2.63;;
42832;SDS011;28479;51.478;5.692;2022-08-01T06:49:48;8.07;;;4.20;;
42832;SDS011;28479;51.478;5.692;2022-08-01T06:52:13;7.53;;;3.63;;
42832;SDS011;28479;51.478;5.692;2022-08-01T06:54:39;6.40;;;3.55;;
42832;SDS011;28479;51.478;5.692;2022-08-01T06:57:05;6.85;;;3.17;;
42832;SDS011;28479;51.478;5.692;2022-08-01T06:59:31;6.50;;;3.10;;
42832;SDS011;28479;51.478;5.692;2022-08-01T07:01:56;4.43;;;2.88;;
42832;SDS011;28479;51.478;5.692;2022-08-01T07:04:25;6.40;;;2.83;;
42832;SDS011;28479;51.478;5.692;2022-08-01T07:06:51;5.07;;;3.10;;
42832;SDS011;28479;51.478;5.692;2022-08-01T07:09:16;6.07;;;3.55;;
42832;SDS011;28479;51.478;5.692;2022-08-01T07:11:42;6.75;;;3.30;;
42832;SDS011;28479;51.478;5.692;2022-08-01T07:14:07;7.13;;;3.58;;
42832;SDS011;28479;51.478;5.692;2022-08-01T07:16:33;5.05;;;3.25;;
42832;SDS011;28479;51.478;5.692;2022-08-01T07:18:58;5.53;;;3.15;;
42832;SDS011;28479;51.478;5.692;2022-08-01T07:21:24;4.93;;;3.00;;
42832;SDS011;28479;51.478;5.692;2022-08-01T07:23:50;6.03;;;2.83;;
42832;SDS011;28479;51.478;5.692;2022-08-01T07:26:15;5.10;;;2.97;;
42832;SDS011;28479;51.478;5.692;2022-08-01T07:28:42;6.10;;;3.35;;
42832;SDS011;28479;51.478;5.692;2022-08-01T07:31:07;6.57;;;3.17;;
42832;SDS011;28479;51.478;5.692;2022-08-01T07:33:33;5.55;;;3.42;;
42832;SDS011;28479;51.478;5.692;2022-08-01T07:35:59;3.95;;;2.63;;
42832;SDS011;28479;51.478;5.692;2022-08-01T07:38:24;5.78;;;4.13;;
42832;SDS011;28479;51.478;5.692;2022-08-01T07:40:52;5.82;;;3.78;;
42832;SDS011;28479;51.478;5.692;2022-08-01T07:43:19;7.95;;;4.60;;
42832;SDS011;28479;51.478;5.692;2022-08-01T07:45:45;14.35;;;5.65;;
42832;SDS011;28479;51.478;5.692;2022-08-01T07:48:11;6.07;;;3.65;;
42832;SDS011;28479;51.478;5.692;2022-08-01T07:50:36;23.50;;;11.02;;
42832;SDS011;28479;51.478;5.692;2022-08-01T07:53:02;5.90;;;3.97;;
42832;SDS011;28479;51.478;5.692;2022-08-01T07:55:28;6.28;;;2.55;;
42832;SDS011;28479;51.478;5.692;2022-08-01T07:57:57;4.20;;;2.72;;
42832;SDS011;28479;51.478;5.692;2022-08-01T08:00:22;5.53;;;2.88;;
42832;SDS011;28479;51.478;5.692;2022-08-01T08:02:48;5.25;;;2.78;;
42832;SDS011;28479;51.478;5.692;2022-08-01T08:05:14;4.43;;;2.60;;
42832;SDS011;28479;51.478;5.692;2022-08-01T08:07:39;3.47;;;2.75;;
42832;SDS011;28479;51.478;5.692;2022-08-01T08:10:05;3.65;;;1.98;;
42832;SDS011;28479;51.478;5.692;2022-08-01T08:12:31;3.38;;;1.55;;
42832;SDS011;28479;51.478;5.692;2022-08-01T08:14:57;2.50;;;1.60;;
42832;SDS011;28479;51.478;5.692;2022-08-01T08:17:26;2.75;;;2.03;;
42832;SDS011;28479;51.478;5.692;2022-08-01T08:19:52;5.03;;;1.73;;
42832;SDS011;28479;51.478;5.692;2022-08-01T08:22:18;2.58;;;1.60;;
42832;SDS011;28479;51.478;5.692;2022-08-01T08:24:44;1.75;;;1.38;;
42832;SDS011;28479;51.478;5.692;2022-08-01T08:27:09;2.33;;;1.60;;
42832;SDS011;28479;51.478;5.692;2022-08-01T08:29:36;1.35;;;1.10;;
42832;SDS011;28479;51.478;5.692;2022-08-01T08:32:01;3.20;;;1.00;;
42832;SDS011;28479;51.478;5.692;2022-08-01T08:34:27;1.95;;;1.50;;
42832;SDS011;28479;51.478;5.692;2022-08-01T08:36:54;5.13;;;1.17;;
42832;SDS011;28479;51.478;5.692;2022-08-01T08:39:21;2.05;;;1.40;;
42832;SDS011;28479;51.478;5.692;2022-08-01T08:41:49;2.05;;;1.13;;
42832;SDS011;28479;51.478;5.692;2022-08-01T08:44:15;2.30;;;1.48;;
42832;SDS011;28479;51.478;5.692;2022-08-01T08:46:43;3.78;;;1.45;;
42832;SDS011;28479;51.478;5.692;2022-08-01T08:49:10;1.80;;;1.58;;
42832;SDS011;28479;51.478;5.692;2022-08-01T08:51:41;3.65;;;1.63;;
42832;SDS011;28479;51.478;5.692;2022-08-01T08:54:08;2.17;;;1.50;;
42832;SDS011;28479;51.478;5.692;2022-08-01T08:56:37;1.48;;;1.23;;
42832;SDS011;28479;51.478;5.692;2022-08-01T08:59:04;1.30;;;1.15;;
42832;SDS011;28479;51.478;5.692;2022-08-01T09:01:31;1.45;;;0.90;;
42832;SDS011;28479;51.478;5.692;2022-08-01T09:04:03;1.40;;;0.90;;
42832;SDS011;28479;51.478;5.692;2022-08-01T09:06:29;1.20;;;0.95;;
42832;SDS011;28479;51.478;5.692;2022-08-01T09:08:56;4.30;;;1.00;;
42832;SDS011;28479;51.478;5.692;2022-08-01T09:11:25;10.82;;;7.28;;
42832;SDS011;28479;51.478;5.692;2022-08-01T09:17:04;3.40;;;2.35;;
42832;SDS011;28479;51.478;5.692;2022-08-01T09:22:04;3.97;;;1.23;;
42832;SDS011;28479;51.478;5.692;2022-08-01T09:24:31;2.28;;;0.90;;
42832;SDS011;28479;51.478;5.692;2022-08-01T09:26:59;1.38;;;0.90;;
42832;SDS011;28479;51.478;5.692;2022-08-01T09:29:27;1.48;;;1.10;;
42832;SDS011;28479;51.478;5.692;2022-08-01T09:31:56;0.82;;;0.80;;
42832;SDS011;28479;51.478;5.692;2022-08-01T09:34:28;9.40;;;5.18;;
42832;SDS011;28479;51.478;5.692;2022-08-01T09:36:56;2.47;;;1.07;;
42832;SDS011;28479;51.478;5.692;2022-08-01T09:41:57;1.27;;;0.95;;
42832;SDS011;28479;51.478;5.692;2022-08-01T09:44:37;2.55;;;1.58;;
42832;SDS011;28479;51.478;5.692;2022-08-01T09:47:04;1.08;;;0.98;;
42832;SDS011;28479;51.478;5.692;2022-08-01T09:49:31;1.90;;;0.90;;
42832;SDS011;28479;51.478;5.692;2022-08-01T09:52:09;7.03;;;2.17;;
42832;SDS011;28479;51.478;5.692;2022-08-01T09:54:40;1.58;;;1.27;;
42832;SDS011;28479;51.478;5.692;2022-08-01T09:57:10;2.22;;;1.00;;
42832;SDS011;28479;51.478;5.692;2022-08-01T09:59:38;1.33;;;1.05;;
42832;SDS011;28479;51.478;5.692;2022-08-01T10:02:09;1.50;;;1.00;;
42832;SDS011;28479;51.478;5.692;2022-08-01T10:04:45;0.57;;;0.55;;
42832;SDS011;28479;51.478;5.692;2022-08-01T10:07:12;0.80;;;0.70;;
42832;SDS011;28479;51.478;5.692;2022-08-01T10:09:40;1.13;;;0.90;;
42832;SDS011;28479;51.478;5.692;2022-08-01T10:12:07;1.50;;;1.40;;
42832;SDS011;28479;51.478;5.692;2022-08-01T10:14:34;5.65;;;1.00;;
42832;SDS011;28479;51.478;5.692;2022-08-01T10:17:02;1.13;;;1.02;;
42832;SDS011;28479;51.478;5.692;2022-08-01T10:19:31;1.45;;;1.20;;
42832;SDS011;28479;51.478;5.692;2022-08-01T10:21:57;1.23;;;1.08;;
42832;SDS011;28479;51.478;5.692;2022-08-01T10:24:24;3.28;;;1.92;;
42832;SDS011;28479;51.478;5.692;2022-08-01T10:26:51;3.10;;;2.17;;
42832;SDS011;28479;51.478;5.692;2022-08-01T10:29:20;3.70;;;2.70;;
42832;SDS011;28479;51.478;5.692;2022-08-01T10:31:47;7.20;;;2.60;;
42832;SDS011;28479;51.478;5.692;2022-08-01T10:34:14;3.92;;;2.60;;
42832;SDS011;28479;51.478;5.692;2022-08-01T10:36:43;3.40;;;2.17;;
42832;SDS011;28479;51.478;5.692;2022-08-01T10:39:10;4.28;;;2.45;;
42832;SDS011;28479;51.478;5.692;2022-08-01T10:41:37;2.22;;;1.83;;
42832;SDS011;28479;51.478;5.692;2022-08-01T10:44:03;2.45;;;1.90;;
42832;SDS011;28479;51.478;5.692;2022-08-01T10:46:34;2.97;;;2.03;;
42832;SDS011;28479;51.478;5.692;2022-08-01T10:49:07;3.60;;;1.90;;
42832;SDS011;28479;51.478;5.692;2022-08-01T10:51:40;2.85;;;1.90;;
42832;SDS011;28479;51.478;5.692;2022-08-01T10:54:07;3.45;;;2.15;;
42832;SDS011;28479;51.478;5.692;2022-08-01T10:56:44;2.58;;;1.60;;
42832;SDS011;28479;51.478;5.692;2022-08-01T10:59:20;4.15;;;2.08;;
42832;SDS011;28479;51.478;5.692;2022-08-01T11:02:00;1.98;;;1.60;;
42832;SDS011;28479;51.478;5.692;2022-08-01T11:07:08;2.67;;;1.50;;
42832;SDS011;28479;51.478;5.692;2022-08-01T11:09:43;2.28;;;1.70;;
42832;SDS011;28479;51.478;5.692;2022-08-01T11:12:12;3.30;;;1.75;;
42832;SDS011;28479;51.478;5.692;2022-08-01T11:17:42;1.70;;;1.40;;
42832;SDS011;28479;51.478;5.692;2022-08-01T11:25:26;5.10;;;1.17;;
42832;SDS011;28479;51.478;5.692;2022-08-01T11:30:48;1.10;;;1.00;;
42832;SDS011;28479;51.478;5.692;2022-08-01T11:33:47;1.35;;;1.25;;
42832;SDS011;28479;51.478;5.692;2022-08-01T11:41:16;3.67;;;1.15;;
42832;SDS011;28479;51.478;5.692;2022-08-01T11:54:46;2.17;;;1.15;;
42832;SDS011;28479;51.478;5.692;2022-08-01T11:57:27;1.77;;;1.35;;
42832;SDS011;28479;51.478;5.692;2022-08-01T11:59:56;2.05;;;1.00;;
42832;SDS011;28479;51.478;5.692;2022-08-01T12:02:30;1.70;;;0.90;;
42832;SDS011;28479;51.478;5.692;2022-08-01T12:04:58;0.93;;;0.80;;
42832;SDS011;28479;51.478;5.692;2022-08-01T12:07:27;0.93;;;0.68;;
42832;SDS011;28479;51.478;5.692;2022-08-01T12:09:59;1.30;;;1.02;;
42832;SDS011;28479;51.478;5.692;2022-08-01T12:12:37;1.20;;;1.10;;
42832;SDS011;28479;51.478;5.692;2022-08-01T12:15:11;0.95;;;0.85;;
42832;SDS011;28479;51.478;5.692;2022-08-01T12:17:38;1.10;;;0.90;;
42832;SDS011;28479;51.478;5.692;2022-08-01T12:20:06;1.55;;;0.98;;
42832;SDS011;28479;51.478;5.692;2022-08-01T12:22:34;3.53;;;1.13;;
42832;SDS011;28479;51.478;5.692;2022-08-01T12:25:07;0.60;;;0.60;;
42832;SDS011;28479;51.478;5.692;2022-08-01T12:27:38;1.10;;;1.00;;
42832;SDS011;28479;51.478;5.692;2022-08-01T12:30:05;2.00;;;1.02;;
42832;SDS011;28479;51.478;5.692;2022-08-01T12:32:33;0.82;;;0.73;;
42832;SDS011;28479;51.478;5.692;2022-08-01T12:35:11;1.33;;;0.95;;
42832;SDS011;28479;51.478;5.692;2022-08-01T12:40:10;1.40;;;1.00;;
42832;SDS011;28479;51.478;5.692;2022-08-01T12:42:44;2.38;;;0.93;;
42832;SDS011;28479;51.478;5.692;2022-08-01T12:45:12;0.80;;;0.80;;
42832;SDS011;28479;51.478;5.692;2022-08-01T12:47:44;5.60;;;0.90;;
42832;SDS011;28479;51.478;5.692;2022-08-01T12:50:12;1.77;;;0.75;;
42832;SDS011;28479;51.478;5.692;2022-08-01T12:52:40;1.80;;;1.30;;
42832;SDS011;28479;51.478;5.692;2022-08-01T12:55:08;2.10;;;0.75;;
42832;SDS011;28479;51.478;5.692;2022-08-01T12:57:36;3.83;;;1.17;;
42832;SDS011;28479;51.478;5.692;2022-08-01T13:02:36;2.65;;;1.38;;
42832;SDS011;28479;51.478;5.692;2022-08-01T13:05:03;3.28;;;1.73;;
42832;SDS011;28479;51.478;5.692;2022-08-01T13:10:07;3.10;;;1.10;;
42832;SDS011;28479;51.478;5.692;2022-08-01T13:12:33;2.97;;;1.10;;
42832;SDS011;28479;51.478;5.692;2022-08-01T13:14:59;1.35;;;0.80;;
42832;SDS011;28479;51.478;5.692;2022-08-01T13:17:34;2.88;;;1.10;;
42832;SDS011;28479;51.478;5.692;2022-08-01T13:20:02;5.88;;;0.90;;
42832;SDS011;28479;51.478;5.692;2022-08-01T13:22:32;1.85;;;1.00;;
42832;SDS011;28479;51.478;5.692;2022-08-01T13:25:14;6.53;;;1.52;;
42832;SDS011;28479;51.478;5.692;2022-08-01T13:27:41;1.23;;;1.05;;
42832;SDS011;28479;51.478;5.692;2022-08-01T13:30:14;1.92;;;0.80;;
42832;SDS011;28479;51.478;5.692;2022-08-01T13:32:41;7.05;;;1.50;;
42832;SDS011;28479;51.478;5.692;2022-08-01T13:35:09;1.65;;;0.88;;
42832;SDS011;28479;51.478;5.692;2022-08-01T13:37:38;4.90;;;1.35;;
42832;SDS011;28479;51.478;5.692;2022-08-01T13:40:06;1.23;;;1.10;;
42832;SDS011;28479;51.478;5.692;2022-08-01T13:42:33;2.47;;;2.28;;
42832;SDS011;28479;51.478;5.692;2022-08-01T13:44:59;2.40;;;1.33;;
42832;SDS011;28479;51.478;5.692;2022-08-01T13:47:25;1.83;;;1.02;;
42832;SDS011;28479;51.478;5.692;2022-08-01T13:49:51;1.00;;;0.80;;
42832;SDS011;28479;51.478;5.692;2022-08-01T13:52:16;2.55;;;1.23;;
42832;SDS011;28479;51.478;5.692;2022-08-01T13:54:42;2.03;;;0.93;;
42832;SDS011;28479;51.478;5.692;2022-08-01T13:57:07;1.92;;;1.30;;
42832;SDS011;28479;51.478;5.692;2022-08-01T13:59:34;2.85;;;1.08;;
42832;SDS011;28479;51.478;5.692;2022-08-01T14:02:00;1.88;;;0.80;;
42832;SDS011;28479;51.478;5.692;2022-08-01T14:04:26;6.65;;;1.10;;
42832;SDS011;28479;51.478;5.692;2022-08-01T14:06:51;1.60;;;1.00;;
42832;SDS011;28479;51.478;5.692;2022-08-01T14:09:17;1.10;;;0.88;;
42832;SDS011;28479;51.478;5.692;2022-08-01T14:11:44;2.88;;;1.05;;
42832;SDS011;28479;51.478;5.692;2022-08-01T14:14:10;1.10;;;0.82;;
42832;SDS011;28479;51.478;5.692;2022-08-01T14:16:36;2.58;;;1.20;;
42832;SDS011;28479;51.478;5.692;2022-08-01T14:19:02;1.55;;;1.10;;
42832;SDS011;28479;51.478;5.692;2022-08-01T14:21:29;2.42;;;1.10;;
42832;SDS011;28479;51.478;5.692;2022-08-01T14:23:56;1.45;;;0.77;;
42832;SDS011;28479;51.478;5.692;2022-08-01T14:26:21;4.68;;;1.27;;
42832;SDS011;28479;51.478;5.692;2022-08-01T14:28:50;4.72;;;1.42;;
42832;SDS011;28479;51.478;5.692;2022-08-01T14:31:15;4.38;;;1.17;;
42832;SDS011;28479;51.478;5.692;2022-08-01T14:33:41;3.50;;;1.42;;
42832;SDS011;28479;51.478;5.692;2022-08-01T14:36:10;2.38;;;1.30;;
42832;SDS011;28479;51.478;5.692;2022-08-01T14:38:35;2.78;;;1.70;;
42832;SDS011;28479;51.478;5.692;2022-08-01T14:41:03;1.23;;;1.10;;
42832;SDS011;28479;51.478;5.692;2022-08-01T14:43:28;1.98;;;1.25;;
42832;SDS011;28479;51.478;5.692;2022-08-01T14:45:59;3.78;;;1.70;;
42832;SDS011;28479;51.478;5.692;2022-08-01T14:48:25;4.78;;;1.42;;
42832;SDS011;28479;51.478;5.692;2022-08-01T14:50:51;11.07;;;1.75;;
42832;SDS011;28479;51.478;5.692;2022-08-01T14:53:17;1.80;;;1.20;;
42832;SDS011;28479;51.478;5.692;2022-08-01T14:55:43;2.90;;;1.27;;
42832;SDS011;28479;51.478;5.692;2022-08-01T14:58:08;2.80;;;1.20;;
42832;SDS011;28479;51.478;5.692;2022-08-01T15:00:34;2.97;;;1.63;;
42832;SDS011;28479;51.478;5.692;2022-08-01T15:03:00;1.10;;;1.00;;
42832;SDS011;28479;51.478;5.692;2022-08-01T15:05:25;2.15;;;1.17;;
42832;SDS011;28479;51.478;5.692;2022-08-01T15:07:51;3.60;;;1.30;;
42832;SDS011;28479;51.478;5.692;2022-08-01T15:10:17;1.10;;;1.00;;
42832;SDS011;28479;51.478;5.692;2022-08-01T15:12:42;5.00;;;2.10;;
42832;SDS011;28479;51.478;5.692;2022-08-01T15:15:08;4.68;;;2.10;;
42832;SDS011;28479;51.478;5.692;2022-08-01T15:17:34;1.45;;;1.20;;
42832;SDS011;28479;51.478;5.692;2022-08-01T15:20:02;3.38;;;1.50;;
42832;SDS011;28479;51.478;5.692;2022-08-01T15:22:29;3.00;;;1.35;;
42832;SDS011;28479;51.478;5.692;2022-08-01T15:24:57;5.28;;;2.08;;
42832;SDS011;28479;51.478;5.692;2022-08-01T15:27:24;3.15;;;1.40;;
42832;SDS011;28479;51.478;5.692;2022-08-01T15:29:51;1.73;;;1.15;;
42832;SDS011;28479;51.478;5.692;2022-08-01T15:32:17;4.00;;;1.67;;
42832;SDS011;28479;51.478;5.692;2022-08-01T15:34:43;3.63;;;1.42;;
42832;SDS011;28479;51.478;5.692;2022-08-01T15:37:09;2.40;;;1.08;;
42832;SDS011;28479;51.478;5.692;2022-08-01T15:39:36;4.40;;;1.30;;
42832;SDS011;28479;51.478;5.692;2022-08-01T15:42:03;2.90;;;1.30;;
42832;SDS011;28479;51.478;5.692;2022-08-01T15:44:31;3.60;;;1.27;;